createdAt,value
2017-05-01T00:01:38.283Z,18.34
2017-05-01T00:04:06.581Z,18.36
2017-05-01T00:06:35.268Z,18.34
2017-05-01T00:09:03.561Z,18.62
2017-05-01T00:11:32.597Z,16.68
2017-05-01T00:14:01.217Z,16.44
2017-05-01T00:16:29.519Z,18.82
2017-05-01T00:18:58.566Z,20.34
2017-05-01T00:21:27.168Z,17.96
2017-05-01T00:23:55.462Z,16.94
2017-05-01T00:26:23.754Z,17.56
2017-05-01T00:28:53.092Z,20.08
2017-05-01T00:31:21.393Z,17.46
2017-05-01T00:33:49.683Z,18.78
2017-05-01T00:36:18.366Z,16.12
2017-05-01T00:38:46.663Z,17.06
2017-05-01T00:41:14.954Z,16.64
2017-05-01T00:43:44.304Z,16.52
2017-05-01T00:46:12.613Z,18.72
2017-05-01T00:48:40.925Z,18.74
2017-05-01T00:51:10.280Z,16.12
2017-05-01T00:53:38.577Z,20.42
2017-05-01T00:56:06.875Z,18.84
2017-05-01T00:58:36.180Z,17.60
2017-05-01T01:01:05.205Z,18.96
2017-05-01T01:03:33.602Z,17.62
2017-05-01T01:06:02.299Z,19.18
2017-05-01T01:08:30.589Z,20.32
2017-05-01T01:11:04.939Z,19.98
2017-05-01T01:13:33.248Z,16.06
2017-05-01T01:16:01.552Z,17.56
2017-05-01T01:18:30.225Z,18.22
2017-05-01T01:20:58.513Z,15.74
2017-05-01T01:23:27.502Z,17.36
2017-05-01T01:25:56.152Z,17.10
2017-05-01T01:28:24.443Z,17.64
2017-05-01T01:30:52.735Z,15.12
2017-05-01T01:33:21.333Z,15.78
2017-05-01T01:35:49.630Z,18.50
2017-05-01T01:38:17.921Z,17.28
2017-05-01T01:40:47.282Z,17.48
2017-05-01T01:43:15.569Z,19.10
2017-05-01T01:45:43.864Z,15.26
2017-05-01T01:48:12.514Z,15.46
2017-05-01T01:50:40.802Z,16.70
2017-05-01T01:53:09.091Z,16.18
2017-05-01T01:55:37.762Z,16.48
2017-05-01T01:58:06.050Z,17.26
2017-05-01T02:00:34.342Z,16.66
2017-05-01T02:03:03.010Z,17.90
2017-05-01T02:05:31.298Z,15.02
2017-05-01T02:07:59.592Z,16.44
2017-05-01T02:10:28.962Z,14.02
2017-05-01T02:12:57.257Z,16.14
2017-05-01T02:15:25.584Z,14.68
2017-05-01T02:17:54.192Z,14.78
2017-05-01T02:20:22.482Z,15.12
2017-05-01T02:22:50.778Z,14.54
2017-05-01T02:25:19.392Z,16.00
2017-05-01T02:27:47.690Z,14.66
2017-05-01T02:30:15.996Z,15.62
2017-05-01T02:32:44.783Z,14.46
2017-05-01T02:35:13.169Z,15.72
2017-05-01T02:37:41.540Z,15.56
2017-05-01T02:40:10.233Z,15.78
2017-05-01T02:42:38.618Z,14.52
2017-05-01T02:45:06.905Z,16.42
2017-05-01T02:47:35.507Z,16.08
2017-05-01T02:50:04.583Z,15.60
2017-05-01T02:52:32.944Z,13.56
2017-05-01T02:55:01.632Z,14.04
2017-05-01T02:57:30.023Z,14.10
2017-05-01T02:59:58.318Z,16.02
2017-05-01T03:02:26.974Z,14.28
2017-05-01T03:04:55.278Z,14.20
2017-05-01T03:07:23.559Z,14.76
2017-05-01T03:09:52.215Z,14.40
2017-05-01T03:12:20.500Z,15.42
2017-05-01T03:14:48.784Z,13.78
2017-05-01T03:17:17.457Z,14.78
2017-05-01T03:19:45.755Z,14.94
2017-05-01T03:22:14.040Z,16.86
2017-05-01T03:24:42.707Z,14.84
2017-05-01T03:27:11.001Z,13.96
2017-05-01T03:29:39.291Z,15.74
2017-05-01T03:32:08.660Z,16.78
2017-05-01T03:34:36.949Z,16.04
2017-05-01T03:37:05.232Z,15.74
2017-05-01T03:39:33.815Z,15.00
2017-05-01T03:42:02.101Z,15.62
2017-05-01T03:44:30.457Z,13.94
2017-05-01T03:46:59.138Z,15.04
2017-05-01T03:49:27.516Z,13.72
2017-05-01T03:51:55.800Z,15.18
2017-05-01T03:54:24.485Z,13.46
2017-05-01T03:56:52.865Z,14.60
2017-05-01T03:59:21.157Z,13.54
2017-05-01T04:01:49.830Z,12.60
2017-05-01T04:04:18.121Z,13.56
2017-05-01T04:06:46.464Z,13.64
2017-05-01T04:09:15.073Z,14.12
2017-05-01T04:11:43.457Z,14.48
2017-05-01T04:14:11.750Z,13.68
2017-05-01T04:16:41.120Z,14.06
2017-05-01T04:19:09.520Z,13.64
2017-05-01T04:21:37.878Z,14.18
2017-05-01T04:24:06.572Z,13.64
2017-05-01T04:26:34.865Z,15.00
2017-05-01T04:29:03.161Z,12.62
2017-05-01T04:31:32.530Z,14.46
2017-05-01T04:34:00.819Z,13.24
2017-05-01T04:36:29.107Z,13.42
2017-05-01T04:38:57.767Z,13.92
2017-05-01T04:41:26.159Z,13.76
2017-05-01T04:43:54.451Z,13.30
2017-05-01T04:46:23.110Z,13.70
2017-05-01T04:48:51.396Z,14.20
2017-05-01T04:51:19.784Z,13.58
2017-05-01T04:53:48.466Z,14.16
2017-05-01T04:56:16.825Z,15.22
2017-05-01T04:58:45.123Z,12.78
2017-05-01T05:01:13.806Z,13.42
2017-05-01T05:03:42.296Z,12.70
2017-05-01T05:06:10.654Z,12.66
2017-05-01T05:08:39.345Z,15.24
2017-05-01T05:11:07.642Z,12.30
2017-05-01T05:13:35.998Z,12.12
2017-05-01T05:16:04.587Z,12.24
2017-05-01T05:18:32.966Z,12.26
2017-05-01T05:21:01.253Z,11.88
2017-05-01T05:23:29.954Z,12.88
2017-05-01T05:25:58.241Z,11.60
2017-05-01T05:28:27.297Z,13.22
2017-05-01T05:30:55.966Z,12.90
2017-05-01T05:33:24.270Z,11.74
2017-05-01T05:35:52.568Z,12.78
2017-05-01T05:38:21.231Z,13.52
2017-05-01T05:40:49.527Z,12.22
2017-05-01T05:43:17.887Z,11.42
2017-05-01T05:45:46.562Z,12.10
2017-05-01T05:48:14.856Z,12.28
2017-05-01T05:50:43.157Z,11.12
2017-05-01T05:53:12.533Z,12.34
2017-05-01T05:55:40.821Z,12.28
2017-05-01T05:58:09.186Z,11.66
2017-05-01T06:00:37.769Z,11.54
2017-05-01T06:03:06.054Z,12.64
2017-05-01T06:05:34.419Z,10.76
2017-05-01T06:08:03.016Z,12.50
2017-05-01T06:10:31.394Z,10.94
2017-05-01T06:12:59.689Z,11.20
2017-05-01T06:15:28.360Z,11.76
2017-05-01T06:17:56.739Z,11.80
2017-05-01T06:20:25.044Z,11.44
2017-05-01T06:22:54.416Z,12.20
2017-05-01T06:25:22.711Z,12.26
2017-05-01T06:27:51.014Z,11.92
2017-05-01T06:30:20.355Z,11.52
2017-05-01T06:32:48.646Z,12.56
2017-05-01T06:35:16.934Z,10.50
2017-05-01T06:37:45.536Z,11.12
2017-05-01T06:40:13.824Z,10.62
2017-05-01T06:42:42.874Z,11.98
2017-05-01T06:45:11.565Z,11.00
2017-05-01T06:47:39.856Z,10.92
2017-05-01T06:50:08.145Z,11.34
2017-05-01T06:52:36.807Z,10.32
2017-05-01T06:55:05.096Z,11.30
2017-05-01T06:57:33.377Z,9.78
2017-05-01T07:00:02.056Z,10.68
2017-05-01T07:02:30.352Z,10.44
2017-05-01T07:04:58.650Z,9.82
2017-05-01T07:07:28.008Z,9.54
2017-05-01T07:09:56.378Z,10.06
2017-05-01T07:12:24.756Z,9.56
2017-05-01T07:14:53.352Z,9.86
2017-05-01T07:17:21.642Z,9.40
2017-05-01T07:19:49.959Z,9.20
2017-05-01T07:22:18.588Z,9.40
2017-05-01T07:24:47.029Z,9.28
2017-05-01T07:27:15.361Z,8.50
2017-05-01T07:29:44.450Z,9.70
2017-05-01T07:32:12.840Z,9.80
2017-05-01T07:34:41.124Z,8.94
2017-05-01T07:37:09.784Z,9.18
2017-05-01T07:39:38.179Z,9.84
2017-05-01T07:42:06.469Z,14.20
2017-05-01T07:44:35.069Z,10.24
2017-05-01T07:47:04.111Z,8.06
2017-05-01T07:49:32.604Z,9.84
2017-05-01T07:52:01.192Z,9.26
2017-05-01T07:54:29.504Z,8.10
2017-05-01T07:56:58.532Z,8.40
2017-05-01T07:59:27.158Z,9.32
2017-05-01T08:01:55.523Z,9.40
2017-05-01T08:04:23.814Z,9.14
2017-05-01T08:06:52.493Z,8.76
2017-05-01T08:09:20.793Z,8.76
2017-05-01T08:11:49.076Z,8.98
2017-05-01T08:14:18.464Z,8.08
2017-05-01T08:16:46.758Z,9.16
2017-05-01T08:19:15.788Z,8.80
2017-05-01T08:21:44.400Z,10.16
2017-05-01T08:24:12.695Z,9.46
2017-05-01T08:26:41.057Z,8.82
2017-05-01T08:29:09.744Z,8.66
2017-05-01T08:31:38.033Z,9.38
2017-05-01T08:34:06.328Z,8.74
2017-05-01T08:36:34.987Z,8.68
2017-05-01T08:39:03.278Z,9.04
2017-05-01T08:41:31.647Z,9.66
2017-05-01T08:44:00.212Z,8.16
2017-05-01T08:46:28.612Z,8.24
2017-05-01T08:48:56.994Z,8.28
2017-05-01T08:51:25.681Z,8.32
2017-05-01T08:53:54.152Z,7.84
2017-05-01T08:56:22.548Z,10.86
2017-05-01T08:58:51.218Z,9.20
2017-05-01T09:01:19.506Z,6.68
2017-05-01T09:03:47.876Z,8.32
2017-05-01T09:06:16.496Z,9.32
2017-05-01T09:08:45.538Z,9.22
2017-05-01T09:11:14.200Z,8.00
2017-05-01T09:13:42.834Z,10.64
2017-05-01T09:16:11.128Z,9.76
2017-05-01T09:18:39.417Z,8.86
2017-05-01T09:21:08.776Z,9.38
2017-05-01T09:23:37.061Z,9.16
2017-05-01T09:26:05.442Z,15.20
2017-05-01T09:28:34.147Z,8.44
2017-05-01T09:31:02.434Z,14.76
2017-05-01T09:33:31.472Z,9.28
2017-05-01T09:36:00.074Z,15.60
2017-05-01T09:38:28.474Z,34.34
2017-05-01T09:40:56.785Z,32.68
2017-05-01T09:43:26.148Z,32.14
2017-05-01T09:45:54.445Z,45.06
2017-05-01T09:48:22.807Z,26.66
2017-05-01T09:50:51.499Z,19.80
2017-05-01T09:53:19.866Z,39.70
2017-05-01T09:55:48.174Z,70.42
2017-05-01T09:58:16.845Z,53.96
2017-05-01T10:00:45.155Z,40.36
2017-05-01T10:03:14.203Z,44.30
2017-05-01T10:05:42.895Z,39.24
2017-05-01T10:08:11.288Z,42.02
2017-05-01T10:10:39.675Z,45.14
2017-05-01T10:13:08.359Z,39.54
2017-05-01T10:15:36.651Z,35.00
2017-05-01T10:18:05.690Z,33.48
2017-05-01T10:20:34.292Z,28.88
2017-05-01T10:23:02.591Z,34.78
2017-05-01T10:25:30.896Z,33.82
2017-05-01T10:28:00.252Z,36.08
2017-05-01T10:30:28.564Z,38.36
2017-05-01T10:32:57.612Z,35.56
2017-05-01T10:35:26.226Z,35.98
2017-05-01T10:37:54.518Z,35.46
2017-05-01T10:40:23.563Z,42.96
2017-05-01T10:42:52.483Z,45.76
2017-05-01T10:45:20.794Z,46.62
2017-05-01T10:47:49.852Z,42.34
2017-05-01T10:50:18.430Z,44.42
2017-05-01T10:52:46.725Z,42.14
2017-05-01T10:55:15.037Z,44.82
2017-05-01T10:57:43.679Z,41.38
2017-05-01T11:00:11.976Z,47.22
2017-05-01T11:02:40.381Z,40.02
2017-05-01T11:05:09.023Z,45.40
2017-05-01T11:07:37.339Z,40.48
2017-05-01T11:10:05.644Z,42.10
2017-05-01T11:12:34.295Z,43.24
2017-05-01T11:27:22.597Z,45.02
2017-05-01T11:29:50.894Z,40.04
2017-05-01T11:32:19.193Z,43.24
2017-05-01T11:34:47.886Z,38.46
2017-05-01T11:37:16.188Z,45.32
2017-05-01T11:39:44.502Z,35.30
2017-05-01T11:42:13.190Z,46.16
2017-05-01T11:44:41.560Z,37.48
2017-05-01T11:47:09.845Z,37.88
2017-05-01T11:49:38.446Z,39.10
2017-05-01T11:52:07.486Z,39.18
2017-05-01T11:54:35.778Z,40.98
2017-05-01T11:57:04.482Z,35.98
2017-05-01T11:59:32.789Z,41.82
2017-05-01T12:02:01.820Z,33.38
2017-05-01T12:04:30.424Z,40.72
2017-05-01T12:06:58.722Z,35.02
2017-05-01T12:09:27.015Z,35.42
2017-05-01T12:11:56.375Z,43.62
2017-05-01T12:14:24.684Z,39.08
2017-05-01T12:16:52.973Z,29.30
2017-05-01T12:19:22.349Z,2.60
2017-05-01T12:21:50.639Z,2.70
2017-05-01T12:24:18.916Z,2.70
2017-05-01T12:26:47.527Z,2.50
2017-05-01T12:29:16.549Z,2.50
2017-05-01T12:31:44.863Z,2.60
2017-05-01T12:34:13.587Z,2.30
2017-05-01T12:36:42.618Z,2.46
2017-05-01T12:39:10.919Z,2.60
2017-05-01T12:41:39.604Z,2.50
2017-05-01T12:44:07.897Z,25.30
2017-05-01T12:46:36.215Z,33.28
2017-05-01T12:49:04.854Z,33.56
2017-05-01T12:51:33.227Z,36.78
2017-05-01T12:54:01.613Z,33.88
2017-05-01T12:56:30.298Z,32.22
2017-05-01T12:58:58.596Z,35.24
2017-05-01T13:01:27.665Z,34.98
2017-05-01T13:03:56.276Z,33.82
2017-05-01T13:06:25.345Z,28.82
2017-05-01T13:08:53.827Z,28.60
2017-05-01T13:11:22.519Z,35.16
2017-05-01T13:13:50.907Z,28.42
2017-05-01T13:16:19.203Z,29.24
2017-05-01T13:18:48.565Z,31.14
2017-05-01T13:21:16.859Z,31.70
2017-05-01T13:23:45.151Z,24.46
2017-05-01T13:26:13.808Z,29.68
2017-05-01T13:28:42.105Z,28.44
2017-05-01T13:31:10.400Z,23.72
2017-05-01T13:33:39.779Z,32.82
2017-05-01T13:36:08.079Z,33.34
2017-05-01T13:38:37.114Z,30.42
2017-05-01T13:41:05.744Z,29.62
2017-05-01T13:43:34.038Z,26.78
2017-05-01T13:46:03.072Z,30.18
2017-05-01T13:48:31.671Z,26.14
2017-05-01T13:50:59.965Z,24.10
2017-05-01T13:53:28.266Z,25.72
2017-05-01T13:55:56.932Z,26.88
2017-05-01T13:58:25.227Z,25.24
2017-05-01T14:00:53.538Z,24.74
2017-05-01T14:03:22.145Z,27.30
2017-05-01T14:05:50.471Z,30.26
2017-05-01T14:08:18.772Z,27.36
2017-05-01T14:10:47.426Z,27.12
2017-05-01T14:13:15.734Z,24.36
2017-05-01T14:15:44.038Z,24.76
2017-05-01T14:18:12.670Z,22.80
2017-05-01T14:20:40.980Z,25.64
2017-05-01T14:23:09.282Z,24.34
2017-05-01T14:25:37.883Z,22.90
2017-05-01T14:28:06.174Z,25.30
2017-05-01T14:30:34.478Z,24.00
2017-05-01T14:33:03.854Z,22.64
2017-05-01T14:35:32.143Z,22.20
2017-05-01T14:38:00.433Z,23.44
2017-05-01T14:40:29.805Z,26.52
2017-05-01T14:42:58.101Z,26.06
2017-05-01T14:45:26.399Z,22.28
2017-05-01T14:47:55.758Z,22.44
2017-05-01T14:50:24.049Z,21.56
2017-05-01T14:52:52.353Z,23.22
2017-05-01T14:55:21.716Z,20.70
2017-05-01T14:57:50.018Z,22.38
2017-05-01T15:00:18.319Z,20.82
2017-05-01T15:02:47.698Z,23.22
2017-05-01T15:05:15.992Z,21.54
2017-05-01T15:07:45.028Z,22.04
2017-05-01T15:10:13.645Z,21.64
2017-05-01T15:12:41.943Z,21.18
2017-05-01T15:15:10.988Z,22.30
2017-05-01T15:17:39.694Z,20.58
2017-05-01T15:20:07.978Z,20.36
2017-05-01T15:22:36.269Z,19.70
2017-05-01T15:25:04.967Z,21.68
2017-05-01T15:27:34.023Z,20.76
2017-05-01T15:30:02.328Z,20.58
2017-05-01T15:32:31.002Z,19.26
2017-05-01T15:34:59.301Z,19.98
2017-05-01T15:37:28.335Z,18.42
2017-05-01T15:39:56.963Z,19.72
2017-05-01T15:42:25.258Z,17.90
2017-05-01T15:44:54.310Z,21.32
2017-05-01T15:47:23.021Z,20.68
2017-05-01T15:49:51.327Z,19.46
2017-05-01T15:52:20.370Z,18.22
2017-05-01T15:54:48.976Z,17.46
2017-05-01T15:57:17.301Z,17.12
2017-05-01T15:59:45.621Z,17.74
2017-05-01T16:02:14.243Z,17.38
2017-05-01T16:04:43.303Z,15.92
2017-05-01T16:07:11.601Z,17.12
2017-05-01T16:09:40.214Z,16.52
2017-05-01T16:12:09.274Z,16.94
2017-05-01T16:14:37.607Z,17.18
2017-05-01T16:17:06.247Z,18.84
2017-05-01T16:19:34.557Z,17.26
2017-05-01T16:22:02.901Z,16.70
2017-05-01T16:24:31.523Z,14.68
2017-05-01T16:26:59.820Z,15.72
2017-05-01T16:29:28.126Z,16.44
2017-05-01T16:31:56.823Z,15.34
2017-05-01T16:34:25.138Z,16.36
2017-05-01T16:36:53.459Z,15.56
2017-05-01T16:39:22.160Z,15.38
2017-05-01T16:41:50.457Z,15.96
2017-05-01T16:44:18.796Z,15.34
2017-05-01T16:46:47.434Z,15.64
2017-05-01T16:49:16.481Z,14.76
2017-05-01T16:51:44.801Z,14.60
2017-05-01T16:54:14.187Z,13.70
2017-05-01T16:56:42.518Z,15.00
2017-05-01T16:59:10.821Z,14.74
2017-05-01T17:01:39.623Z,14.68
2017-05-01T17:04:07.956Z,13.76
2017-05-01T17:06:36.261Z,14.14
2017-05-01T17:09:04.981Z,15.04
2017-05-01T17:11:33.289Z,14.72
2017-05-01T17:14:01.612Z,14.02
2017-05-01T17:16:30.332Z,14.30
2017-05-01T17:18:59.391Z,15.04
2017-05-01T17:21:27.700Z,12.52
2017-05-01T17:23:56.376Z,12.38
2017-05-01T17:26:24.689Z,11.22
2017-05-01T17:28:53.014Z,9.74
2017-05-01T17:31:21.712Z,10.46
2017-05-01T17:33:50.041Z,10.34
2017-05-01T17:36:18.345Z,12.50
2017-05-01T17:38:46.987Z,11.24
2017-05-01T17:41:16.044Z,13.74
2017-05-01T17:43:44.358Z,38.44
2017-05-01T17:46:13.784Z,37.10
2017-05-01T17:48:42.088Z,59.88
2017-05-01T17:51:10.414Z,79.78
2017-05-01T17:53:39.815Z,88.14
2017-05-01T17:56:08.908Z,32.70
2017-05-01T17:58:37.232Z,31.34
2017-05-01T18:01:05.865Z,37.66
2017-05-01T18:03:34.195Z,45.14
2017-05-01T18:06:02.494Z,54.14
2017-05-01T18:08:31.121Z,58.28
2017-05-01T18:11:00.194Z,53.20
2017-05-01T18:13:28.555Z,69.36
2017-05-01T18:15:57.170Z,71.42
2017-05-01T18:18:25.476Z,58.80
2017-05-01T18:20:53.811Z,65.16
2017-05-01T18:23:22.406Z,49.80
2017-05-01T18:25:50.718Z,44.74
2017-05-01T18:28:19.023Z,43.22
2017-05-01T18:30:47.629Z,42.04
2017-05-01T18:33:15.931Z,45.00
2017-05-01T18:35:44.979Z,54.20
2017-05-01T18:38:13.653Z,35.44
2017-05-01T18:40:41.969Z,45.92
2017-05-01T18:43:10.437Z,30.64
2017-05-01T18:45:39.413Z,49.80
2017-05-01T18:48:08.027Z,29.82
2017-05-01T18:50:36.354Z,30.98
2017-05-01T18:53:04.989Z,26.44
2017-05-01T18:55:33.301Z,27.10
2017-05-01T18:58:01.801Z,23.52
2017-05-01T19:00:30.754Z,18.52
2017-05-01T19:02:59.220Z,16.94
2017-05-01T19:05:27.573Z,11.78
2017-05-01T19:07:56.224Z,11.58
2017-05-01T19:10:25.313Z,9.22
2017-05-01T19:12:53.640Z,7.46
2017-05-01T19:15:22.494Z,7.52
2017-05-01T19:17:51.559Z,7.76
2017-05-01T19:20:19.911Z,7.72
2017-05-01T19:22:48.660Z,7.14
2017-05-01T19:25:16.255Z,6.14
2017-05-01T19:27:44.570Z,21.42
2017-05-01T19:30:13.249Z,8.30
2017-05-01T19:32:41.570Z,9.28
2017-05-01T19:35:09.901Z,7.40
2017-05-01T19:37:38.611Z,6.58
2017-05-01T19:40:07.656Z,6.94
2017-05-01T19:42:35.956Z,6.00
2017-05-01T19:45:04.645Z,7.52
2017-05-01T19:47:32.939Z,7.00
2017-05-01T19:50:01.256Z,9.38
2017-05-01T19:52:29.882Z,6.28
2017-05-01T19:54:58.957Z,6.52
2017-05-01T19:57:27.274Z,7.40
2017-05-01T19:59:55.947Z,6.36
2017-05-01T20:02:24.270Z,6.58
2017-05-01T20:04:52.628Z,7.12
2017-05-01T20:07:22.018Z,6.78
2017-05-01T20:09:50.312Z,7.42
2017-05-01T20:12:19.355Z,7.32
2017-05-01T20:14:48.140Z,6.64
2017-05-01T20:17:16.457Z,6.72
2017-05-01T20:19:44.767Z,6.62
2017-05-01T20:22:13.410Z,6.54
2017-05-01T20:24:41.707Z,7.16
2017-05-01T20:27:10.016Z,6.88
2017-05-01T20:29:38.607Z,7.10
2017-05-01T20:32:06.941Z,13.82
2017-05-01T20:34:35.227Z,6.84
2017-05-01T20:37:03.828Z,10.00
2017-05-01T20:39:32.161Z,7.90
2017-05-01T20:42:00.470Z,28.36
2017-05-01T20:44:29.066Z,6.34
2017-05-01T20:46:57.381Z,7.06
2017-05-01T20:49:25.683Z,6.60
2017-05-01T20:51:54.285Z,6.60
2017-05-01T20:54:22.601Z,6.36
2017-05-01T20:56:50.912Z,6.44
2017-05-01T20:59:19.503Z,6.24
2017-05-01T21:01:47.810Z,6.74
2017-05-01T21:04:16.105Z,6.30
2017-05-01T21:06:44.689Z,6.40
2017-05-01T21:09:12.979Z,7.42
2017-05-01T21:11:41.292Z,31.88
2017-05-01T21:14:09.890Z,10.96
2017-05-01T21:16:38.195Z,6.82
2017-05-01T21:19:07.239Z,5.86
2017-05-01T21:21:35.836Z,6.14
2017-05-01T21:24:04.130Z,7.18
2017-05-01T21:26:32.427Z,7.10
2017-05-01T21:29:01.803Z,5.68
2017-05-01T21:31:30.097Z,7.60
2017-05-01T21:33:58.399Z,6.60
2017-05-01T21:36:26.980Z,6.36
2017-05-01T21:38:55.273Z,6.30
2017-05-01T21:41:23.567Z,6.62
2017-05-01T21:43:52.188Z,6.62
2017-05-01T21:46:20.478Z,6.32
2017-05-01T21:48:48.775Z,6.50
2017-05-01T21:51:17.359Z,6.36
2017-05-01T21:53:45.655Z,6.24
2017-05-01T21:56:13.947Z,6.78
2017-05-01T21:58:42.545Z,6.08
2017-05-01T22:01:10.841Z,6.90
2017-05-01T22:03:39.176Z,6.16
2017-05-01T22:06:07.777Z,6.82
2017-05-01T22:08:36.075Z,6.80
2017-05-01T22:11:04.392Z,7.38
2017-05-01T22:13:32.994Z,6.90
2017-05-01T22:16:01.301Z,7.28
2017-05-01T22:18:28.837Z,6.38
2017-05-01T22:20:57.413Z,6.16
2017-05-01T22:23:25.707Z,6.18
2017-05-01T22:25:53.992Z,5.78
2017-05-01T22:28:22.591Z,6.14
2017-05-01T22:30:50.892Z,6.10
2017-05-01T22:33:19.194Z,6.00
2017-05-01T22:35:47.828Z,9.04
2017-05-01T22:38:16.128Z,5.72
2017-05-01T22:40:44.431Z,6.22
2017-05-01T22:43:13.042Z,6.76
2017-05-01T22:45:41.343Z,6.62
2017-05-01T22:48:09.635Z,6.20
2017-05-01T22:50:38.214Z,6.76
2017-05-01T22:53:06.518Z,6.20
2017-05-01T22:55:34.818Z,6.70
2017-05-01T22:58:03.414Z,5.96
2017-05-01T23:00:31.708Z,6.48
2017-05-01T23:03:00.012Z,6.12
2017-05-01T23:05:28.614Z,5.78
2017-05-01T23:07:56.903Z,7.34
2017-05-01T23:10:25.939Z,6.56
2017-05-01T23:12:54.544Z,5.32
2017-05-01T23:15:22.833Z,6.28
2017-05-01T23:17:51.120Z,6.14
2017-05-01T23:20:19.786Z,6.04
2017-05-01T23:22:48.089Z,6.04
2017-05-01T23:25:16.378Z,6.10
2017-05-01T23:27:45.742Z,6.34
2017-05-01T23:30:14.026Z,6.10
2017-05-01T23:32:42.321Z,7.00
2017-05-01T23:35:11.082Z,6.48
2017-05-01T23:37:39.473Z,6.08
2017-05-01T23:40:07.853Z,6.30
2017-05-01T23:42:36.542Z,7.92
2017-05-01T23:45:04.823Z,5.68
2017-05-01T23:47:33.122Z,5.78
2017-05-01T23:50:02.491Z,5.52
2017-05-01T23:52:30.772Z,6.10
2017-05-01T23:54:59.073Z,6.26
2017-05-01T23:57:27.738Z,8.28
2017-05-01T23:59:56.033Z,7.34
